AirNav   TITAN Aviation Fuels
 
 859 users online  

UT24 Strawberry Valley Estates Airport
Alton, Utah, USA

GOING TO ALTON?


FAA INFORMATION EFFECTIVE 11 AUGUST 2022

Location

FAA Identifier: UT24
Lat/Long: 37-29-35.9290N 112-38-43.7670W
37-29.598817N 112-38.729450W
37.4933136,-112.6454908
(estimated)
Elevation: 8141 ft. / 2481.4 m (surveyed)
Variation: 14E (1985)
From city: 9 miles NW of ALTON, UT
Time zone: UTC -6 (UTC -7 during Standard Time)
Zip code: 84762

Airport Operations

Airport use: Private use. Permission required prior to landing
Control tower: no
ARTCC: SALT LAKE CITY CENTER
FSS: CEDAR CITY FLIGHT SERVICE STATION
Attendance: MAY-OCT DAYLIGHT HOURS
Wind indicator: yes
Segmented circle: no

Airport Communications

CTAF/UNICOM: 122.8

Nearby radio navigation aids

VOR radial/distance  VOR name  Freq  Var
BCEr219/20.0BRYCE CANYON VORTAC112.8015E
EHKr115/26.7ENOCH VOR/DME117.3016E

 
NDB name  Hdg/Dist  Freq  Var  ID
COLORADO CITY016/36.440313EAZC .- --.. -.-.

Airport Services

Airframe service: NONE
Powerplant service: NONE

Runway Information

Runway 3/21

Dimensions: 4200 x 50 ft. / 1280 x 15 m
Surface: turf
GRASS
RUNWAY 3  RUNWAY 21
Traffic pattern: leftleft

Airport Ownership and Management from official FAA records

Ownership: Privately-owned
Owner: STRAWBERRY VALLEY AIRPORT, LLC
HC 82, BOX 1169
DUCK CREEK VILLAGE, UT 84762
Phone 435-682-2569
Manager: GARY HACKBART
HC 82 BOX 1169
DUCK CREEK VILLAGE, UT 84762
Phone 435-682-2569

Additional Remarks

FOR CD CTC SALT LAKE ARTCC AT 801-320-2568.

Instrument Procedures

There are no published instrument procedures at UT24.

Some nearby airports with instrument procedures:

U55 - Panguitch Municipal Airport (24 nm NE)
KCDC - Cedar City Regional Airport (25 nm NW)
KBCE - Bryce Canyon Airport (27 nm NE)
KKNB - Kanab Municipal Airport (29 nm S)
KAZC - Colorado City Municipal Airport (37 nm SW)
 
Loc | Ops | Rwys | IFR | FBO | Links
Com | Nav | Svcs | Stats | Notes
Area around UT24 (Strawberry Valley Estates Airport)
 
Road maps at: MapQuest Bing Google
 
Aerial photo
WARNING: Photo may not be current or correct
Aerial photo of UT24 (Strawberry Valley Estates Airport)
Photo taken 15-Jun-2019
looking south.

Do you have a better or more recent aerial photo of Strawberry Valley Estates Airport that you would like to share? If so, please send us your photo.

 
Sectional chart

 
Airport distance calculator
Flying to Strawberry Valley Estates Airport? Find the distance to fly.

From to UT24

Sunrise and sunset
Times for 16-Aug-2022
 Local
(UTC-6)
 Zulu
(UTC)
Morning civil twilight06:2112:21
Sunrise06:4812:48
Sunset20:2102:21
Evening civil twilight20:4902:49

Current date and time
Zulu (UTC)  17-Aug-2022 04:21:18
Local (UTC-6)  16-Aug-2022 22:21:18
 
METAR
KU55 
24nm NE 
170350Z AUTO 00000KT 10SM OVC095 17/15 A3029 RMK A01
KCDC 
25nm NW 
170353Z AUTO 07003KT 10SM FEW110 19/16 A3017 RMK AO2 SLP145 T01890161
KBCE 
27nm NE 
170353Z AUTO 00000KT 10SM -RA OVC095 16/13 A3033 RMK AO2 RAB49 SLP155 P0000 T01560133
KKNB 
29nm S 
170355Z AUTO 35006KT 10SM CLR 23/16 A3015 RMK A01
KAZC 
37nm SW 
170355Z AUTO 00000KT 10SM CLR 21/18 A3013 RMK AO2
TAF
KCDC 
25nm NW 
161911Z 1619/1718 14008KT P6SM VCTS FEW080CB BKN100 FM170000 10008KT P6SM VCSH FEW060 BKN100 FM170400 15005KT P6SM SCT080 BKN100
KBCE 
27nm NE 
162253Z 1623/1718 10008KT P6SM SHRA SCT060 OVC080 FM170100 VRB05KT P6SM VCSH SCT080 BKN100 FM170300 VRB05KT P6SM SCT080 OVC100 FM171600 14008KT P6SM SCT080 BKN100
NOTAMs
Click for the latest NOTAMs
NOTAMs are issued by the DoD/FAA and will open in a separate window not controlled by AirNav.

 

 
 

Would you like to see your business listed on this page?

 If your business provides an interesting product or service to pilots, flight crews, aircraft, or users of the Strawberry Valley Estates Airport, you should consider listing it here.  To start the listing process, click on the button below
 
Add a business
 

Other Pages about Strawberry Valley Estates Airport

Update a link
 
Copyright © AirNav, LLC. All rights reserved. Privacy Policy  Contact